Time;durP1;ratioP1;P1;durP2;ratioP2;P2;SDS_P1;SDS_P2;PMS_P1;PMS_P2;Temp;Humidity;BMP_temperature;BMP_pressure;BME280_temperature;BME280_humidity;BME280_pressure;Samples;Min_cycle;Max_cycle;Signal;HPM_P1;HPM_P2
2023/07/20 00:02:07;;;;;;;3.13;2.40;;;;;;;;;;5082583;28;20491;-63
2023/07/20 00:04:34;;;;;;;4.03;2.47;;;;;;;;;;5082961;28;20451;-62
2023/07/20 00:07:01;;;;;;;4.40;2.30;;;;;;;;;;5082077;28;20432;-62
2023/07/20 00:09:27;;;;;;;3.00;2.30;;;;;;;;;;5082608;28;20490;-62
2023/07/20 00:11:54;;;;;;;3.07;2.43;;;;;;;;;;5082711;28;20456;-63
2023/07/20 00:14:21;;;;;;;3.20;2.50;;;;;;;;;;5081914;28;20542;-64
2023/07/20 00:16:55;;;;;;;4.00;2.60;;;;;;;;;;5082689;28;20451;-62
2023/07/20 00:19:22;;;;;;;2.50;2.30;;;;;;;;;;5082215;28;20451;-62
2023/07/20 00:21:49;;;;;;;4.67;2.60;;;;;;;;;;5073439;28;20541;-62
2023/07/20 00:24:15;;;;;;;3.23;2.80;;;;;;;;;;5082423;28;20459;-62
2023/07/20 00:26:41;;;;;;;4.83;3.03;;;;;;;;;;5082661;28;20471;-63
2023/07/20 00:29:08;;;;;;;3.10;2.80;;;;;;;;;;5081882;28;20539;-62
2023/07/20 00:31:34;;;;;;;4.87;3.10;;;;;;;;;;5081955;28;20498;-62
2023/07/20 00:34:02;;;;;;;4.07;3.70;;;;;;;;;;5082248;28;20447;-62
2023/07/20 00:36:29;;;;;;;4.70;3.60;;;;;;;;;;5081334;28;20506;-62
2023/07/20 00:38:55;;;;;;;7.33;4.40;;;;;;;;;;5082057;28;20472;-62
2023/07/20 00:41:21;;;;;;;6.80;5.70;;;;;;;;;;5080981;28;20475;-63
2023/07/20 00:43:48;;;;;;;6.13;4.83;;;;;;;;;;5081252;28;20452;-62
2023/07/20 00:46:14;;;;;;;6.27;5.63;;;;;;;;;;5082024;28;20487;-62
2023/07/20 00:48:41;;;;;;;5.10;4.60;;;;;;;;;;5081481;28;20543;-63
2023/07/20 00:51:10;;;;;;;9.03;5.50;;;;;;;;;;5081614;28;20485;-62
2023/07/20 00:53:36;;;;;;;8.63;6.47;;;;;;;;;;5081997;28;20483;-62
2023/07/20 00:56:03;;;;;;;10.00;6.27;;;;;;;;;;5081681;28;20487;-62
2023/07/20 00:58:30;;;;;;;8.10;6.83;;;;;;;;;;5081158;28;20444;-62
2023/07/20 01:00:56;;;;;;;7.83;7.00;;;;;;;;;;5081833;28;20737;-62
2023/07/20 01:03:22;;;;;;;7.83;7.03;;;;;;;;;;5081728;28;20582;-62
2023/07/20 01:05:51;;;;;;;7.57;6.97;;;;;;;;;;5080577;28;20456;-62
2023/07/20 01:08:25;;;;;;;7.80;7.00;;;;;;;;;;5081516;28;20479;-62
2023/07/20 01:10:54;;;;;;;11.50;8.10;;;;;;;;;;5079666;28;20514;-62
2023/07/20 01:13:22;;;;;;;8.63;7.60;;;;;;;;;;5080885;28;20452;-62
2023/07/20 01:15:50;;;;;;;11.47;7.70;;;;;;;;;;5081385;28;20800;-62
2023/07/20 01:18:16;;;;;;;8.83;7.83;;;;;;;;;;5080457;28;20448;-62
2023/07/20 01:20:43;;;;;;;7.73;7.03;;;;;;;;;;5081432;28;20513;-62
2023/07/20 01:23:19;;;;;;;8.37;7.50;;;;;;;;;;5081292;28;20452;-62
2023/07/20 01:26:19;;;;;;;10.90;7.33;;;;;;;;;;5081519;28;20977;-62
2023/07/20 01:29:06;;;;;;;8.40;7.70;;;;;;;;;;5037751;28;20838;-62
2023/07/20 01:31:36;;;;;;;8.63;7.53;;;;;;;;;;5038368;28;20466;-62
2023/07/20 01:34:03;;;;;;;8.60;7.90;;;;;;;;;;5038378;28;20480;-63
2023/07/20 01:36:31;;;;;;;9.63;7.03;;;;;;;;;;5037158;28;20528;-62
2023/07/20 01:38:58;;;;;;;8.97;8.17;;;;;;;;;;5038312;28;20464;-62
2023/07/20 01:41:24;;;;;;;11.70;8.40;;;;;;;;;;5038109;28;20546;-63
2023/07/20 01:43:51;;;;;;;10.40;7.90;;;;;;;;;;5030383;28;20489;-62
2023/07/20 01:46:17;;;;;;;9.43;8.53;;;;;;;;;;5030783;28;20652;-62
2023/07/20 01:48:45;;;;;;;10.73;8.40;;;;;;;;;;5037878;28;20478;-62
2023/07/20 01:51:12;;;;;;;9.73;8.10;;;;;;;;;;5038160;28;20457;-62
2023/07/20 01:53:38;;;;;;;11.27;8.23;;;;;;;;;;5037326;28;21081;-63
2023/07/20 01:56:04;;;;;;;10.27;9.27;;;;;;;;;;5038503;28;20510;-62
2023/07/20 01:58:31;;;;;;;9.10;8.30;;;;;;;;;;5037167;28;20497;-62
2023/07/20 02:00:57;;;;;;;9.27;8.37;;;;;;;;;;5040474;28;21054;-62
2023/07/20 02:03:26;;;;;;;10.97;9.87;;;;;;;;;;5040529;28;20505;-62
2023/07/20 02:05:54;;;;;;;15.20;9.60;;;;;;;;;;5039748;28;20456;-62
2023/07/20 02:08:20;;;;;;;13.70;11.90;;;;;;;;;;5040419;28;20557;-62
2023/07/20 02:10:47;;;;;;;12.37;11.17;;;;;;;;;;5040009;28;20512;-62
2023/07/20 02:13:14;;;;;;;13.57;11.53;;;;;;;;;;5040086;28;20454;-62
2023/07/20 02:15:40;;;;;;;11.40;10.30;;;;;;;;;;5040437;28;20446;-62
2023/07/20 02:18:07;;;;;;;13.07;11.90;;;;;;;;;;5039730;28;20450;-62
2023/07/20 02:20:33;;;;;;;12.90;11.70;;;;;;;;;;5039947;28;20758;-62
2023/07/20 02:23:01;;;;;;;12.47;10.70;;;;;;;;;;5040170;28;21092;-62
2023/07/20 02:25:27;;;;;;;11.70;10.70;;;;;;;;;;5039614;28;20454;-62
2023/07/20 02:27:54;;;;;;;12.10;11.00;;;;;;;;;;5039340;28;20546;-62
2023/07/20 02:30:20;;;;;;;13.33;12.13;;;;;;;;;;5039536;28;21153;-62
2023/07/20 02:32:48;;;;;;;12.47;11.47;;;;;;;;;;5040174;28;20808;-62
2023/07/20 02:35:14;;;;;;;13.40;11.60;;;;;;;;;;5052588;28;20490;-62
2023/07/20 02:37:41;;;;;;;14.63;13.20;;;;;;;;;;5079205;28;20472;-62
2023/07/20 02:40:09;;;;;;;15.13;13.73;;;;;;;;;;5071831;28;20486;-62
2023/07/20 02:42:37;;;;;;;15.90;14.57;;;;;;;;;;5078982;28;20444;-62
2023/07/20 02:45:04;;;;;;;16.20;14.60;;;;;;;;;;5079730;28;21001;-63
2023/07/20 02:47:30;;;;;;;17.83;13.67;;;;;;;;;;5079568;28;20436;-62
2023/07/20 02:49:57;;;;;;;17.27;15.63;;;;;;;;;;5079368;28;20487;-62
2023/07/20 02:52:24;;;;;;;14.93;13.43;;;;;;;;;;5079703;28;20998;-62
2023/07/20 02:54:50;;;;;;;17.80;16.00;;;;;;;;;;5079422;28;20456;-62
2023/07/20 02:57:18;;;;;;;21.03;14.50;;;;;;;;;;5079608;28;20506;-62
2023/07/20 02:59:44;;;;;;;16.13;14.73;;;;;;;;;;5078723;28;20455;-62
2023/07/20 03:02:11;;;;;;;20.33;15.23;;;;;;;;;;5079258;28;20483;-63
2023/07/20 03:04:38;;;;;;;16.40;14.70;;;;;;;;;;5078847;28;20527;-62
2023/07/20 03:07:05;;;;;;;15.70;14.30;;;;;;;;;;5079017;28;20447;-62
2023/07/20 03:09:31;;;;;;;16.07;14.57;;;;;;;;;;5079527;28;20555;-62
2023/07/20 03:11:57;;;;;;;15.70;14.10;;;;;;;;;;5079752;28;20686;-62
2023/07/20 03:14:25;;;;;;;17.17;15.47;;;;;;;;;;5078530;28;20523;-62
2023/07/20 03:16:52;;;;;;;17.00;15.40;;;;;;;;;;5079052;28;20482;-62
2023/07/20 03:19:18;;;;;;;16.57;14.93;;;;;;;;;;5079180;28;20832;-62
2023/07/20 03:21:44;;;;;;;19.00;15.00;;;;;;;;;;5079276;28;20448;-62
2023/07/20 03:24:11;;;;;;;15.00;13.50;;;;;;;;;;5079182;28;20476;-62
2023/07/20 03:26:37;;;;;;;15.20;13.60;;;;;;;;;;5078967;28;20448;-62
2023/07/20 03:29:04;;;;;;;16.47;13.57;;;;;;;;;;5078159;28;20456;-62
2023/07/20 03:31:32;;;;;;;18.60;12.90;;;;;;;;;;5079459;28;20867;-62
2023/07/20 03:33:59;;;;;;;13.27;11.87;;;;;;;;;;5079503;28;20507;-62
2023/07/20 03:36:25;;;;;;;12.53;11.10;;;;;;;;;;5076649;28;20479;-62
2023/07/20 03:38:51;;;;;;;9.43;8.67;;;;;;;;;;5079189;28;20483;-62
2023/07/20 03:41:19;;;;;;;8.30;6.90;;;;;;;;;;5079322;28;20511;-62
2023/07/20 03:43:46;;;;;;;8.73;6.83;;;;;;;;;;5078365;28;20462;-62
2023/07/20 03:46:12;;;;;;;8.93;6.70;;;;;;;;;;5079543;28;20474;-62
2023/07/20 03:48:40;;;;;;;5.47;4.97;;;;;;;;;;5078780;28;20474;-62
2023/07/20 03:51:07;;;;;;;5.80;5.20;;;;;;;;;;5079268;28;20518;-62
2023/07/20 03:53:33;;;;;;;7.50;5.87;;;;;;;;;;5079005;28;20444;-62
2023/07/20 03:55:58;;;;;;;6.90;6.20;;;;;;;;;;5078912;28;20447;-62
2023/07/20 03:58:25;;;;;;;6.87;6.27;;;;;;;;;;5078701;28;20474;-62
2023/07/20 04:00:52;;;;;;;9.70;5.43;;;;;;;;;;5076777;28;20256;-62
2023/07/20 04:03:18;;;;;;;5.77;5.27;;;;;;;;;;5079133;28;20917;-62
2023/07/20 04:05:46;;;;;;;5.20;4.20;;;;;;;;;;5077979;28;20484;-63
2023/07/20 04:08:12;;;;;;;6.30;5.00;;;;;;;;;;5079430;28;20443;-62
2023/07/20 04:10:39;;;;;;;5.33;4.83;;;;;;;;;;5078431;28;20968;-62
2023/07/20 04:13:06;;;;;;;5.10;4.63;;;;;;;;;;5078403;28;20528;-62
2023/07/20 04:15:33;;;;;;;5.37;4.80;;;;;;;;;;5078796;28;20452;-62
2023/07/20 04:18:00;;;;;;;4.93;4.43;;;;;;;;;;5074860;28;20468;-62
2023/07/20 04:20:27;;;;;;;4.90;4.30;;;;;;;;;;5082035;28;20451;-62
2023/07/20 04:22:54;;;;;;;7.47;4.47;;;;;;;;;;5082720;28;20478;-62
2023/07/20 04:25:21;;;;;;;4.20;3.80;;;;;;;;;;5081385;28;20483;-62
2023/07/20 04:27:47;;;;;;;5.30;4.80;;;;;;;;;;5079665;28;20444;-62
2023/07/20 04:30:15;;;;;;;4.53;4.17;;;;;;;;;;5081159;28;20555;-62
2023/07/20 04:32:45;;;;;;;4.47;4.10;;;;;;;;;;5081900;28;20515;-62
2023/07/20 04:35:12;;;;;;;4.90;4.60;;;;;;;;;;5081012;28;20541;-62
2023/07/20 04:37:45;;;;;;;6.10;5.50;;;;;;;;;;5081178;28;20454;-62
2023/07/20 04:40:13;;;;;;;6.03;5.20;;;;;;;;;;5081877;28;20448;-62
2023/07/20 04:42:40;;;;;;;6.60;5.77;;;;;;;;;;5068987;28;21182;-62
2023/07/20 04:45:06;;;;;;;8.83;5.70;;;;;;;;;;5081253;28;20482;-62
2023/07/20 04:47:33;;;;;;;7.20;5.03;;;;;;;;;;5081367;28;20471;-62
2023/07/20 04:49:59;;;;;;;6.17;5.57;;;;;;;;;;5080318;28;20490;-62
2023/07/20 04:52:25;;;;;;;7.43;6.40;;;;;;;;;;5081119;28;20889;-62
2023/07/20 04:54:52;;;;;;;6.40;5.67;;;;;;;;;;5080918;28;20546;-62
2023/07/20 04:57:20;;;;;;;6.10;5.50;;;;;;;;;;5080395;28;20468;-62
2023/07/20 04:59:46;;;;;;;6.70;6.10;;;;;;;;;;5080509;28;20877;-62
2023/07/20 05:02:12;;;;;;;6.77;6.20;;;;;;;;;;5081215;28;20516;-62
2023/07/20 05:04:39;;;;;;;5.90;5.40;;;;;;;;;;5077861;28;20486;-62
2023/07/20 05:07:05;;;;;;;6.77;6.03;;;;;;;;;;5074439;28;20902;-62
2023/07/20 05:09:32;;;;;;;7.47;5.67;;;;;;;;;;5080786;28;20456;-62
2023/07/20 05:11:58;;;;;;;6.00;5.40;;;;;;;;;;5080863;28;20515;-62
2023/07/20 05:14:26;;;;;;;6.57;5.87;;;;;;;;;;5080365;28;20451;-63
2023/07/20 05:16:53;;;;;;;5.70;5.13;;;;;;;;;;5080381;28;20451;-62
2023/07/20 05:19:19;;;;;;;5.93;5.07;;;;;;;;;;5075090;28;20551;-62
2023/07/20 05:21:45;;;;;;;6.07;5.57;;;;;;;;;;5068736;28;20449;-63
2023/07/20 05:24:12;;;;;;;5.53;5.13;;;;;;;;;;5080712;28;20448;-62
2023/07/20 05:26:38;;;;;;;5.43;5.03;;;;;;;;;;5080225;28;20511;-62
2023/07/20 05:29:05;;;;;;;4.60;4.17;;;;;;;;;;5075393;28;20466;-62
2023/07/20 05:31:33;;;;;;;5.43;4.30;;;;;;;;;;5080739;28;20559;-62
2023/07/20 05:33:59;;;;;;;4.60;4.20;;;;;;;;;;5071326;28;20455;-62
2023/07/20 05:36:26;;;;;;;3.60;3.30;;;;;;;;;;5076361;28;21171;-62
2023/07/20 05:38:52;;;;;;;3.27;2.97;;;;;;;;;;5078210;28;20482;-62
2023/07/20 05:41:18;;;;;;;4.73;3.20;;;;;;;;;;5080221;28;20483;-62
2023/07/20 05:43:45;;;;;;;3.30;3.00;;;;;;;;;;5079652;28;20750;-62
2023/07/20 05:46:11;;;;;;;3.67;2.93;;;;;;;;;;5080502;28;20511;-62
2023/07/20 05:48:39;;;;;;;3.23;2.93;;;;;;;;;;5080428;28;20494;-62
2023/07/20 05:51:06;;;;;;;2.90;2.70;;;;;;;;;;5079230;28;20488;-62
2023/07/20 05:53:32;;;;;;;2.60;2.37;;;;;;;;;;5080255;28;20436;-62
2023/07/20 05:55:59;;;;;;;3.77;2.70;;;;;;;;;;5080111;28;20476;-62
2023/07/20 05:58:26;;;;;;;2.77;2.37;;;;;;;;;;5078886;28;20487;-62
2023/07/20 06:00:52;;;;;;;3.30;2.60;;;;;;;;;;5079673;28;20505;-63
2023/07/20 06:03:21;;;;;;;3.43;2.67;;;;;;;;;;5080009;28;20902;-62
2023/07/20 06:05:49;;;;;;;2.87;2.40;;;;;;;;;;5078200;28;20463;-62
2023/07/20 06:08:15;;;;;;;2.43;1.93;;;;;;;;;;5080020;28;20988;-62
2023/07/20 06:10:41;;;;;;;2.10;1.73;;;;;;;;;;5079559;28;20514;-62
2023/07/20 06:13:08;;;;;;;2.30;2.10;;;;;;;;;;5078378;28;20614;-63
2023/07/20 06:15:35;;;;;;;2.40;2.20;;;;;;;;;;5080001;28;20608;-62
2023/07/20 06:18:03;;;;;;;3.20;2.10;;;;;;;;;;5078857;28;20481;-62
2023/07/20 06:20:29;;;;;;;3.13;2.13;;;;;;;;;;5078716;28;20441;-62
2023/07/20 06:22:57;;;;;;;2.10;1.60;;;;;;;;;;5079358;28;20535;-63
2023/07/20 06:25:24;;;;;;;2.73;2.10;;;;;;;;;;5079129;28;20965;-63
2023/07/20 06:27:51;;;;;;;2.40;1.60;;;;;;;;;;5077880;28;20483;-63
2023/07/20 06:30:17;;;;;;;2.20;1.33;;;;;;;;;;5079367;28;20484;-63
2023/07/20 06:32:44;;;;;;;2.17;1.53;;;;;;;;;;5079338;28;20476;-63
2023/07/20 06:35:10;;;;;;;2.87;1.50;;;;;;;;;;5078378;28;20573;-63
2023/07/20 06:37:36;;;;;;;2.07;1.73;;;;;;;;;;5079610;28;20594;-63
2023/07/20 06:40:05;;;;;;;2.13;1.27;;;;;;;;;;5078652;28;20489;-63
2023/07/20 06:42:32;;;;;;;1.57;1.20;;;;;;;;;;5077994;28;20602;-63
2023/07/20 06:44:58;;;;;;;2.97;1.20;;;;;;;;;;5071572;28;20479;-63
2023/07/20 06:47:25;;;;;;;2.10;1.30;;;;;;;;;;5079119;28;20495;-63
2023/07/20 06:49:51;;;;;;;3.27;1.40;;;;;;;;;;5078481;28;20766;-63
2023/07/20 06:52:17;;;;;;;2.70;1.00;;;;;;;;;;5079035;28;20480;-63
2023/07/20 06:54:44;;;;;;;2.00;0.60;;;;;;;;;;5079255;28;20472;-63
2023/07/20 06:57:13;;;;;;;1.90;1.13;;;;;;;;;;5078207;28;20444;-63
2023/07/20 06:59:39;;;;;;;1.97;1.10;;;;;;;;;;5078160;28;20447;-63
2023/07/20 07:02:06;;;;;;;2.07;1.10;;;;;;;;;;5078800;28;20531;-63
2023/07/20 07:04:32;;;;;;;1.77;1.10;;;;;;;;;;5077989;28;20507;-63
2023/07/20 07:07:00;;;;;;;2.07;0.90;;;;;;;;;;5077938;28;20513;-63
2023/07/20 07:09:26;;;;;;;2.17;0.93;;;;;;;;;;5078651;28;20444;-63
2023/07/20 07:11:53;;;;;;;1.40;0.93;;;;;;;;;;5078216;28;20483;-63
2023/07/20 07:14:21;;;;;;;3.00;0.83;;;;;;;;;;5077606;28;20487;-63
2023/07/20 07:16:47;;;;;;;1.23;0.67;;;;;;;;;;5078646;28;20602;-63
2023/07/20 07:19:14;;;;;;;1.33;0.60;;;;;;;;;;5077956;28;20535;-63
2023/07/20 07:21:40;;;;;;;4.17;0.80;;;;;;;;;;5078235;28;20485;-63
2023/07/20 07:24:07;;;;;;;1.73;0.70;;;;;;;;;;5078301;28;20472;-64
2023/07/20 07:26:34;;;;;;;1.83;0.90;;;;;;;;;;5077375;28;20490;-63
2023/07/20 07:29:00;;;;;;;1.20;0.70;;;;;;;;;;5077964;28;20637;-64
2023/07/20 07:31:30;;;;;;;2.80;1.00;;;;;;;;;;5078244;28;20499;-64
2023/07/20 07:33:56;;;;;;;1.13;0.80;;;;;;;;;;5077762;28;20479;-64
2023/07/20 07:36:24;;;;;;;2.30;0.53;;;;;;;;;;5077175;28;20513;-63
2023/07/20 07:38:50;;;;;;;1.37;0.83;;;;;;;;;;5078466;28;20471;-63
2023/07/20 07:41:17;;;;;;;1.93;1.10;;;;;;;;;;5075478;28;21026;-63
2023/07/20 07:43:43;;;;;;;1.87;0.63;;;;;;;;;;5065619;28;20498;-63
2023/07/20 07:46:09;;;;;;;2.30;1.03;;;;;;;;;;5074864;28;20950;-62
2023/07/20 07:48:37;;;;;;;1.47;0.73;;;;;;;;;;5077854;28;20456;-63
2023/07/20 07:51:04;;;;;;;1.87;0.60;;;;;;;;;;5078879;28;20551;-63
2023/07/20 07:53:32;;;;;;;1.67;0.70;;;;;;;;;;5082500;28;20451;-64
2023/07/20 07:55:58;;;;;;;1.37;0.70;;;;;;;;;;5081737;28;20677;-63
2023/07/20 07:58:25;;;;;;;0.97;0.60;;;;;;;;;;5072059;28;20510;-64
2023/07/20 08:00:51;;;;;;;3.00;1.10;;;;;;;;;;5082014;28;20563;-63
2023/07/20 08:03:18;;;;;;;1.20;0.70;;;;;;;;;;5081688;28;20439;-61
2023/07/20 08:05:46;;;;;;;1.60;1.00;;;;;;;;;;5081114;28;20473;-61
2023/07/20 08:08:12;;;;;;;3.07;1.13;;;;;;;;;;5082293;28;20574;-61
2023/07/20 08:10:39;;;;;;;1.70;0.80;;;;;;;;;;5081228;28;20534;-61
2023/07/20 08:13:05;;;;;;;2.30;1.00;;;;;;;;;;5081535;28;20458;-61
2023/07/20 08:15:32;;;;;;;2.30;0.80;;;;;;;;;;5081727;28;20451;-61
2023/07/20 08:17:59;;;;;;;1.20;0.70;;;;;;;;;;5081130;28;21077;-61
2023/07/20 08:20:26;;;;;;;1.67;0.70;;;;;;;;;;5081324;28;20495;-62
2023/07/20 08:22:54;;;;;;;1.60;1.00;;;;;;;;;;5081507;28;20455;-62
2023/07/20 08:25:20;;;;;;;1.30;0.70;;;;;;;;;;5080203;28;20517;-63
2023/07/20 08:27:47;;;;;;;2.83;0.50;;;;;;;;;;5081069;28;20534;-62
2023/07/20 08:30:13;;;;;;;1.03;0.50;;;;;;;;;;5081468;28;21018;-62
2023/07/20 08:32:40;;;;;;;1.10;0.50;;;;;;;;;;5074204;28;20577;-62
2023/07/20 08:35:07;;;;;;;3.13;1.17;;;;;;;;;;5080594;28;20488;-62
2023/07/20 08:37:33;;;;;;;1.63;0.83;;;;;;;;;;5072014;28;20505;-62
2023/07/20 08:40:01;;;;;;;2.57;1.00;;;;;;;;;;5074714;28;20451;-61
2023/07/20 08:42:28;;;;;;;1.10;0.60;;;;;;;;;;5081159;28;20444;-61
2023/07/20 08:44:55;;;;;;;2.20;0.73;;;;;;;;;;5080971;28;20517;-63
2023/07/20 08:47:21;;;;;;;2.40;0.70;;;;;;;;;;5080855;28;20451;-63
2023/07/20 08:49:49;;;;;;;1.17;0.60;;;;;;;;;;5081411;28;20519;-63
2023/07/20 08:52:16;;;;;;;1.40;0.70;;;;;;;;;;5080968;28;20502;-63
2023/07/20 08:54:42;;;;;;;1.97;0.50;;;;;;;;;;5080267;28;20996;-63
2023/07/20 08:57:12;;;;;;;1.30;0.63;;;;;;;;;;5081383;28;20487;-64
2023/07/20 08:59:38;;;;;;;1.63;0.60;;;;;;;;;;5080296;28;20452;-64
2023/07/20 09:02:05;;;;;;;1.50;0.50;;;;;;;;;;5080338;28;20452;-64
2023/07/20 09:04:32;;;;;;;1.30;0.40;;;;;;;;;;5080076;28;21008;-64
2023/07/20 09:06:58;;;;;;;1.93;0.80;;;;;;;;;;5079680;28;21009;-64
2023/07/20 09:09:25;;;;;;;1.40;0.60;;;;;;;;;;5079983;28;20489;-63
2023/07/20 09:11:51;;;;;;;1.00;0.40;;;;;;;;;;5080817;28;20588;-63
2023/07/20 09:14:19;;;;;;;1.77;0.53;;;;;;;;;;5079897;28;21007;-63
2023/07/20 09:16:49;;;;;;;1.40;0.73;;;;;;;;;;5079576;28;20514;-62
2023/07/20 09:19:16;;;;;;;2.17;0.90;;;;;;;;;;5080197;28;20485;-62
2023/07/20 09:21:45;;;;;;;1.50;0.80;;;;;;;;;;5080214;28;20547;-62
2023/07/20 09:24:11;;;;;;;1.53;0.87;;;;;;;;;;5080092;28;20448;-63
2023/07/20 09:26:41;;;;;;;2.20;0.80;;;;;;;;;;5079939;28;20516;-63
2023/07/20 09:29:08;;;;;;;1.00;0.50;;;;;;;;;;5079822;28;20490;-63
2023/07/20 09:31:36;;;;;;;1.23;0.67;;;;;;;;;;5079433;28;20552;-63
2023/07/20 09:34:03;;;;;;;1.63;0.40;;;;;;;;;;5080208;28;20448;-63
2023/07/20 09:36:31;;;;;;;1.40;0.50;;;;;;;;;;5079487;28;20488;-63
2023/07/20 09:38:59;;;;;;;1.60;0.60;;;;;;;;;;5079263;28;20439;-63
2023/07/20 09:41:26;;;;;;;1.70;0.73;;;;;;;;;;5079756;28;20483;-62
2023/07/20 09:43:53;;;;;;;0.90;0.57;;;;;;;;;;5079553;28;20538;-63
2023/07/20 09:46:20;;;;;;;2.07;1.00;;;;;;;;;;5079435;28;20582;-63
2023/07/20 09:48:54;;;;;;;1.40;0.83;;;;;;;;;;5079818;28;20850;-63
2023/07/20 09:51:22;;;;;;;1.83;0.70;;;;;;;;;;5079881;28;20475;-63
2023/07/20 09:53:49;;;;;;;1.10;0.60;;;;;;;;;;5079361;28;20498;-62
2023/07/20 09:56:17;;;;;;;2.27;1.07;;;;;;;;;;5080406;28;21267;-62
2023/07/20 09:58:44;;;;;;;0.90;0.50;;;;;;;;;;5079317;28;20448;-62
2023/07/20 10:01:13;;;;;;;2.13;1.00;;;;;;;;;;5078691;28;20496;-63
2023/07/20 10:03:40;;;;;;;1.50;0.50;;;;;;;;;;5079361;28;20470;-62
2023/07/20 10:06:09;;;;;;;0.97;0.50;;;;;;;;;;5078785;28;21392;-63
2023/07/20 10:08:37;;;;;;;1.60;0.80;;;;;;;;;;5078965;28;20448;-62
2023/07/20 10:11:04;;;;;;;1.57;0.70;;;;;;;;;;5076743;28;20491;-62
2023/07/20 10:13:31;;;;;;;1.00;0.60;;;;;;;;;;5078799;28;20544;-63
2023/07/20 10:16:00;;;;;;;1.53;0.57;;;;;;;;;;5078871;28;20535;-63
2023/07/20 10:18:29;;;;;;;1.30;0.77;;;;;;;;;;5079529;28;20524;-62
2023/07/20 10:20:57;;;;;;;1.10;0.40;;;;;;;;;;5079529;28;20443;-62
2023/07/20 10:23:25;;;;;;;1.43;0.60;;;;;;;;;;5078949;28;20444;-62
2023/07/20 10:25:51;;;;;;;1.77;0.70;;;;;;;;;;5078643;28;20490;-63
2023/07/20 10:28:18;;;;;;;2.33;0.60;;;;;;;;;;5078869;28;20480;-63
2023/07/20 10:30:44;;;;;;;1.90;0.50;;;;;;;;;;5078936;28;20443;-62
2023/07/20 10:33:11;;;;;;;1.90;0.70;;;;;;;;;;5079062;28;20468;-62
2023/07/20 10:35:54;;;;;;;1.10;0.60;;;;;;;;;;5078504;28;20491;-62
2023/07/20 10:38:20;;;;;;;1.10;0.50;;;;;;;;;;5076186;28;20467;-63
2023/07/20 10:40:56;;;;;;;2.57;1.00;;;;;;;;;;5079373;28;20460;-63
2023/07/20 10:43:23;;;;;;;1.20;0.67;;;;;;;;;;5078648;28;20915;-63
2023/07/20 10:45:50;;;;;;;3.80;0.80;;;;;;;;;;5078410;28;20475;-63
2023/07/20 10:48:17;;;;;;;1.10;0.60;;;;;;;;;;5079004;28;20995;-64
2023/07/20 10:50:44;;;;;;;1.10;0.60;;;;;;;;;;5078903;28;20456;-64
2023/07/20 10:53:11;;;;;;;1.20;0.73;;;;;;;;;;5078467;28;20513;-63
2023/07/20 10:55:38;;;;;;;1.23;0.87;;;;;;;;;;5078846;28;20489;-63
2023/07/20 10:58:11;;;;;;;1.17;0.87;;;;;;;;;;5077581;28;20447;-64
2023/07/20 11:00:38;;;;;;;1.60;0.87;;;;;;;;;;5078111;28;20467;-63
2023/07/20 11:03:05;;;;;;;1.33;0.90;;;;;;;;;;5079039;28;20444;-63
2023/07/20 11:05:38;;;;;;;1.30;1.10;;;;;;;;;;5077339;28;20525;-64
2023/07/20 11:08:05;;;;;;;2.93;1.00;;;;;;;;;;5063187;28;20461;-63
2023/07/20 11:10:32;;;;;;;0.90;0.60;;;;;;;;;;5072811;28;20444;-63
2023/07/20 11:13:19;;;;;;;1.30;0.70;;;;;;;;;;5078388;28;20488;-63
2023/07/20 11:15:46;;;;;;;2.03;1.03;;;;;;;;;;5070191;28;20505;-63
2023/07/20 11:18:12;;;;;;;1.23;1.10;;;;;;;;;;5078301;28;20456;-63
2023/07/20 11:20:39;;;;;;;1.30;1.00;;;;;;;;;;5078713;28;20452;-63
2023/07/20 11:23:05;;;;;;;3.57;1.10;;;;;;;;;;5078010;28;20452;-63
2023/07/20 11:25:36;;;;;;;3.30;1.50;;;;;;;;;;5078003;28;20455;-64
2023/07/20 11:28:07;;;;;;;1.10;0.90;;;;;;;;;;5077945;28;20793;-63
2023/07/20 11:30:35;;;;;;;1.70;1.20;;;;;;;;;;5078011;28;20547;-63
2023/07/20 11:33:01;;;;;;;1.40;0.93;;;;;;;;;;5078282;28;20486;-63
2023/07/20 11:35:28;;;;;;;1.90;1.10;;;;;;;;;;5078075;28;20522;-63
2023/07/20 11:37:54;;;;;;;2.60;1.20;;;;;;;;;;5077842;28;20455;-63
2023/07/20 11:40:20;;;;;;;1.73;1.10;;;;;;;;;;5078396;28;20509;-63
2023/07/20 11:42:47;;;;;;;2.10;1.03;;;;;;;;;;5078674;28;20482;-63
2023/07/20 11:45:14;;;;;;;1.67;1.23;;;;;;;;;;5077266;28;20447;-63
2023/07/20 11:47:42;;;;;;;1.93;1.37;;;;;;;;;;5078437;28;20957;-63
2023/07/20 11:50:10;;;;;;;1.47;1.30;;;;;;;;;;5078198;28;20452;-64
2023/07/20 11:52:37;;;;;;;1.63;1.10;;;;;;;;;;5077238;28;20541;-63
2023/07/20 11:55:04;;;;;;;2.33;1.30;;;;;;;;;;5076787;28;20444;-63
2023/07/20 11:57:31;;;;;;;3.00;2.37;;;;;;;;;;5078345;28;20456;-63
2023/07/20 11:59:58;;;;;;;2.23;1.70;;;;;;;;;;5077104;28;20451;-63
2023/07/20 12:02:25;;;;;;;2.30;1.47;;;;;;;;;;5076550;28;20465;-63
2023/07/20 12:04:54;;;;;;;3.50;1.73;;;;;;;;;;5077972;28;20600;-63
2023/07/20 12:07:22;;;;;;;3.20;1.80;;;;;;;;;;5076627;28;20448;-63
2023/07/20 12:10:03;;;;;;;2.80;1.60;;;;;;;;;;5078061;28;20885;-63
2023/07/20 12:12:29;;;;;;;1.70;1.40;;;;;;;;;;5078013;28;20526;-63
2023/07/20 12:14:56;;;;;;;1.60;1.50;;;;;;;;;;5076742;28;20466;-63
2023/07/20 12:17:22;;;;;;;3.07;1.70;;;;;;;;;;5077577;28;20492;-61
2023/07/20 12:19:48;;;;;;;2.10;1.63;;;;;;;;;;5077978;28;20456;-63
2023/07/20 12:22:16;;;;;;;1.63;1.43;;;;;;;;;;5077094;28;20513;-63
2023/07/20 12:24:43;;;;;;;2.00;1.87;;;;;;;;;;5077848;28;20520;-63
2023/07/20 12:27:09;;;;;;;1.70;1.60;;;;;;;;;;5071956;28;20476;-63
2023/07/20 12:29:36;;;;;;;3.23;1.70;;;;;;;;;;5076524;28;20459;-63
2023/07/20 12:32:03;;;;;;;1.43;1.33;;;;;;;;;;5077725;28;20443;-63
2023/07/20 12:34:29;;;;;;;1.70;1.20;;;;;;;;;;5073416;28;20516;-63
2023/07/20 12:36:56;;;;;;;1.70;1.60;;;;;;;;;;5070721;28;20590;-63
2023/07/20 12:39:24;;;;;;;1.50;1.40;;;;;;;;;;5081241;28;20447;-62
2023/07/20 12:41:50;;;;;;;1.93;1.47;;;;;;;;;;5081614;28;20460;-63
2023/07/20 12:44:17;;;;;;;1.23;1.13;;;;;;;;;;5079647;28;21043;-62
2023/07/20 12:46:43;;;;;;;2.17;1.20;;;;;;;;;;5081261;28;20490;-63
2023/07/20 12:49:10;;;;;;;6.90;1.20;;;;;;;;;;5081204;28;20459;-63
2023/07/20 12:51:36;;;;;;;1.50;0.90;;;;;;;;;;5078555;28;20459;-63
2023/07/20 12:54:02;;;;;;;1.73;0.90;;;;;;;;;;5079102;28;20560;-63
2023/07/20 12:56:30;;;;;;;1.83;1.10;;;;;;;;;;5081176;28;20622;-62
2023/07/20 12:58:57;;;;;;;1.20;0.80;;;;;;;;;;5079788;28;20523;-63
2023/07/20 13:01:24;;;;;;;1.50;1.00;;;;;;;;;;5080746;28;20522;-62
2023/07/20 13:03:50;;;;;;;1.00;0.80;;;;;;;;;;5081426;28;20452;-62
2023/07/20 13:06:17;;;;;;;2.00;0.90;;;;;;;;;;5079440;28;20448;-63
2023/07/20 13:08:43;;;;;;;6.70;1.20;;;;;;;;;;5081028;28;20479;-62
2023/07/20 13:11:10;;;;;;;2.37;0.80;;;;;;;;;;5080945;28;20539;-62
2023/07/20 13:13:37;;;;;;;1.60;1.40;;;;;;;;;;5079482;28;20527;-62
2023/07/20 13:16:04;;;;;;;1.10;0.90;;;;;;;;;;5080776;28;20455;-62
2023/07/20 13:18:31;;;;;;;1.43;0.77;;;;;;;;;;5080790;28;20479;-63
2023/07/20 13:20:57;;;;;;;1.17;0.70;;;;;;;;;;5078906;28;20471;-62
2023/07/20 13:23:23;;;;;;;2.40;1.20;;;;;;;;;;5070543;28;20589;-62
2023/07/20 13:25:50;;;;;;;1.23;0.90;;;;;;;;;;5076184;28;20515;-62
2023/07/20 13:28:16;;;;;;;1.20;0.90;;;;;;;;;;5079486;28;20480;-62
2023/07/20 13:30:46;;;;;;;3.77;0.90;;;;;;;;;;5080708;28;20884;-63
2023/07/20 13:33:12;;;;;;;1.10;0.80;;;;;;;;;;5080164;28;20475;-62
2023/07/20 13:35:38;;;;;;;1.00;0.80;;;;;;;;;;5079122;28;20506;-62
2023/07/20 13:38:05;;;;;;;2.10;0.93;;;;;;;;;;5076602;28;20523;-62
2023/07/20 13:40:31;;;;;;;3.87;0.90;;;;;;;;;;5077835;28;20483;-63
2023/07/20 13:42:58;;;;;;;1.13;0.60;;;;;;;;;;5079505;28;20908;-63
2023/07/20 13:45:24;;;;;;;1.10;0.70;;;;;;;;;;5079605;28;20498;-62
2023/07/20 13:47:52;;;;;;;1.60;0.90;;;;;;;;;;5080130;28;20462;-62
2023/07/20 13:50:18;;;;;;;2.50;0.80;;;;;;;;;;5078470;28;20483;-63
2023/07/20 13:52:44;;;;;;;1.67;0.90;;;;;;;;;;5080351;28;20551;-62
2023/07/20 13:55:10;;;;;;;0.97;0.60;;;;;;;;;;5079284;28;20468;-62
2023/07/20 13:57:36;;;;;;;1.80;0.90;;;;;;;;;;5079622;28;20210;-62
2023/07/20 14:00:03;;;;;;;1.50;0.90;;;;;;;;;;5079555;28;20839;-62
2023/07/20 14:02:30;;;;;;;1.77;0.80;;;;;;;;;;5080215;28;20448;-62
2023/07/20 14:04:58;;;;;;;1.27;0.93;;;;;;;;;;5071221;28;20444;-62
2023/07/20 14:07:24;;;;;;;1.33;0.80;;;;;;;;;;5079249;28;20455;-62
2023/07/20 14:09:51;;;;;;;2.20;0.97;;;;;;;;;;5079674;28;20443;-62
2023/07/20 14:12:17;;;;;;;1.40;0.90;;;;;;;;;;5078877;28;20531;-62
2023/07/20 14:14:43;;;;;;;1.53;0.90;;;;;;;;;;5079035;28;21027;-64
2023/07/20 14:17:10;;;;;;;1.93;0.70;;;;;;;;;;5079548;28;20519;-62
2023/07/20 14:19:38;;;;;;;1.10;0.90;;;;;;;;;;5078987;28;20491;-62
2023/07/20 14:22:06;;;;;;;2.07;1.10;;;;;;;;;;5079385;28;20455;-62
2023/07/20 14:24:33;;;;;;;1.17;0.70;;;;;;;;;;5079406;28;20506;-62
2023/07/20 14:27:00;;;;;;;2.13;0.83;;;;;;;;;;5078984;28;20979;-62
2023/07/20 14:29:27;;;;;;;1.27;0.80;;;;;;;;;;5078905;28;20460;-62
2023/07/20 14:31:53;;;;;;;1.40;0.87;;;;;;;;;;5079002;28;20456;-62
2023/07/20 14:34:20;;;;;;;2.53;0.70;;;;;;;;;;5079232;28;20502;-62
2023/07/20 14:36:46;;;;;;;1.40;0.80;;;;;;;;;;5078001;28;20483;-62
2023/07/20 14:39:14;;;;;;;1.20;0.60;;;;;;;;;;5079320;28;20467;-62
2023/07/20 14:41:40;;;;;;;2.17;0.87;;;;;;;;;;5078820;28;20471;-62